^^
Saratoga-Weather Station Historical Data
 
Daily Summary for December 09, 2019 Units:  English    Metric   Both
Daily Weekly Monthly Yearly Custom
  Current: High: Low: Average:
Temperature: 53 °F 53.2 °F 27.6 °F 41.4 °F
Dew Point: 52.2 °F 52.4 °F 24.5 °F 40.2 °F
Humidity: 97% 97% 88% 95%
Wind Speed: 5mph 8.6mph 0mph 2.4mph
Wind Gust: 11.5mph 18.4mph - -
WindSSW - - SSW
Pressure: 29.62 in 30.25 in 29.62 in -
Precipitation: 1.08 in      
Historical Graphs
 
 
Tabular Data for December 09, 2019
Time Temperature Dew Point Pressure Wind Wind Speed Wind Gust Humidity Rainfall Rate (Hourly) solar
00:04 27.6 °F 24.5 °F 30.25 in SSE 0.3 mph 13 mph 88% 0.00 in 0 W/m2
00:09 27.6 °F 24.5 °F 30.25 in SSE 0.2 mph 1.2 mph 88% 0.00 in 0 W/m2
00:14 27.6 °F 24.8 °F 30.25 in SSE 0.4 mph 1.2 mph 88.9% 0.00 in 0 W/m2
00:19 27.8 °F 25 °F 30.25 in SSE 0.5 mph 2.3 mph 89% 0.00 in 0 W/m2
00:24 27.9 °F 25.1 °F 30.25 in SSE 0.3 mph 2.3 mph 89% 0.00 in 0 W/m2
00:29 27.9 °F 25.1 °F 30.24 in SSE 0.5 mph 1.2 mph 89% 0.00 in 0 W/m2
00:34 28 °F 25.4 °F 30.25 in SSE 0.7 mph 2.3 mph 90% 0.00 in 0 W/m2
00:39 28 °F 25.4 °F 30.24 in SSE 0.2 mph 1.2 mph 90% 0.00 in 0 W/m2
00:44 28 °F 25.4 °F 30.24 in Calm     90% 0.00 in 0 W/m2
00:49 28 °F 25.4 °F 30.24 in SSE 0.8 mph 2.3 mph 90% 0.00 in 0 W/m2
00:54 28.2 °F 25.6 °F 30.24 in SSE 0.7 mph 1.2 mph 90% 0.00 in 0 W/m2
00:59 28.4 °F 25.8 °F 30.24 in SSE 0.2 mph 1.2 mph 90% 0.00 in 0 W/m2
01:04 28.4 °F 25.8 °F 30.24 in SSE 0.6 mph 2.3 mph 90% 0.00 in 0 W/m2
01:09 28.5 °F 25.9 °F 30.24 in SSE 1 mph 2.3 mph 90% 0.00 in 0 W/m2
01:14 28.7 °F 26.1 °F 30.23 in SSE 0.2 mph 1.2 mph 90% 0.00 in 0 W/m2
01:19 28.9 °F 26.6 °F 30.23 in SSE 0.1 mph 1.2 mph 90.8% 0.00 in 0 W/m2
01:24 29.3 °F 27 °F 30.23 in Calm   1.2 mph 91% 0.00 in 0 W/m2
01:29 29.4 °F 27.1 °F 30.23 in Calm     91% 0.00 in 0 W/m2
01:34 29.7 °F 27.4 °F 30.23 in SSE 0.3 mph 1.2 mph 91% 0.00 in 0 W/m2
01:39 29.8 °F 27.5 °F 30.22 in Calm   1.2 mph 91% 0.00 in 0 W/m2
01:44 29.8 °F 27.5 °F 30.22 in SSE 0.1 mph 1 mph 91% 0.00 in 0 W/m2
01:49 29.9 °F 27.6 °F 30.21 in SSE 0.7 mph 2.3 mph 91% 0.00 in 0 W/m2
01:54 30.1 °F 28.1 °F 30.22 in Calm     92% 0.00 in 0 W/m2
01:59 30.2 °F 28.2 °F 30.22 in Calm     92% 0.00 in 0 W/m2
02:04 30.2 °F 28.2 °F 30.21 in SSE 0.1 mph 2 mph 92% 0.00 in 0 W/m2
02:09 30.5 °F 28.5 °F 30.21 in SSE 0.7 mph 2.3 mph 92% 0.00 in 0 W/m2
02:14 30.7 °F 28.7 °F 30.22 in SSW 0.9 mph 2.3 mph 92% 0.00 in 0 W/m2
02:19 30.8 °F 28.8 °F 30.22 in WSW 1.3 mph 2.3 mph 92% 0.00 in 0 W/m2
02:24 30.8 °F 28.8 °F 30.22 in WSW 1.3 mph 2.3 mph 92% 0.00 in 0 W/m2
02:29 30.8 °F 28.8 °F 30.21 in West 1 mph 2.3 mph 92% 0.00 in 0 W/m2
02:34 30.9 °F 28.9 °F 30.21 in West 1 mph 2.3 mph 92% 0.00 in 0 W/m2
02:39 31 °F 28.9 °F 30.21 in West 0.8 mph 2.3 mph 92% 0.00 in 0 W/m2
02:44 31 °F 28.9 °F 30.21 in West 1 mph 2.3 mph 92% 0.00 in 0 W/m2
02:49 31.1 °F 29 °F 30.21 in West 0.6 mph 2.3 mph 92% 0.00 in 0 W/m2
02:54 31.1 °F 29 °F 30.21 in West 0.3 mph 2 mph 92% 0.00 in 0 W/m2
02:59 31.2 °F 29.3 °F 30.21 in West 0.2 mph 2.3 mph 92.8% 0.00 in 0 W/m2
03:04 31.3 °F 29.5 °F 30.21 in Calm   1.2 mph 93% 0.00 in 0 W/m2
03:09 31.3 °F 29.5 °F 30.20 in West 0.5 mph 1.2 mph 93% 0.00 in 0 W/m2
03:14 31.4 °F 29.6 °F 30.20 in West 0.1 mph 1.2 mph 93% 0.00 in 0 W/m2
03:19 31.4 °F 29.6 °F 30.20 in West 0.2 mph 1.2 mph 93% 0.00 in 0 W/m2
03:24 31.5 °F 29.7 °F 30.20 in Calm     93% 0.00 in 0 W/m2
03:29 31.6 °F 29.8 °F 30.20 in Calm     93% 0.00 in 0 W/m2
03:34 31.7 °F 29.9 °F 30.20 in West 0.3 mph 1.2 mph 93% 0.00 in 0 W/m2
03:39 31.8 °F 30 °F 30.19 in West 0.1 mph 1.2 mph 93% 0.00 in 0 W/m2
03:44 31.9 °F 30.1 °F 30.19 in Calm     93% 0.00 in 0 W/m2
03:49 32 °F 30.2 °F 30.19 in Calm     93% 0.00 in 0 W/m2
03:54 32 °F 30.2 °F 30.18 in Calm     93% 0.00 in 0 W/m2
03:59 32.1 °F 30.3 °F 30.18 in West 0.3 mph 1.2 mph 93% 0.00 in 0 W/m2
04:04 32.2 °F 30.4 °F 30.18 in Calm   1.2 mph 93% 0.00 in 0 W/m2
04:09 32.3 °F 30.5 °F 30.17 in West 0.5 mph 1.2 mph 93% 0.00 in 0 W/m2
04:14 32.3 °F 30.5 °F 30.17 in West 0.1 mph 1.2 mph 93% 0.00 in 0 W/m2
04:19 32.4 °F 30.7 °F 30.17 in West 0.3 mph 2.3 mph 93.4% 0.00 in 0 W/m2
04:24 32.5 °F 31 °F 30.17 in West 1 mph 2.3 mph 94% 0.00 in 0 W/m2
04:29 32.5 °F 31 °F 30.17 in West 1.3 mph 2.3 mph 94% 0.00 in 0 W/m2
04:34 32.5 °F 31 °F 30.17 in West 1.5 mph 2.3 mph 94% 0.00 in 0 W/m2
04:39 32.5 °F 31 °F 30.17 in West 1.3 mph 2.3 mph 94% 0.00 in 0 W/m2
04:44 32.5 °F 31 °F 30.17 in West 0.6 mph 1.2 mph 94% 0.00 in 0 W/m2
04:49 32.5 °F 31 °F 30.16 in West 0.1 mph 1.2 mph 94% 0.00 in 0 W/m2
04:54 32.5 °F 31 °F 30.16 in Calm     94% 0.01 in 0 W/m2
04:59 32.5 °F 31 °F 30.16 in Calm     94% 0.01 in 0 W/m2
05:04 32.5 °F 31 °F 30.16 in Calm     94% 0.01 in 0 W/m2
05:09 32.5 °F 31 °F 30.16 in Calm     94% 0.01 in 0 W/m2
05:14 32.6 °F 31.1 °F 30.15 in West 0.3 mph 1.2 mph 94% 0.01 in 0 W/m2
05:19 32.6 °F 31.1 °F 30.15 in West 0.3 mph 1.2 mph 94% 0.01 in 0 W/m2
05:24 32.6 °F 31.1 °F 30.15 in West 0.2 mph 1.2 mph 94% 0.01 in 0 W/m2
05:29 32.7 °F 31.2 °F 30.15 in West 0.3 mph 1.2 mph 94% 0.01 in 0 W/m2
05:34 32.7 °F 31.2 °F 30.15 in West 0.1 mph 1.2 mph 94% 0.01 in 0 W/m2
05:39 32.7 °F 31.2 °F 30.15 in West 0.3 mph 1.2 mph 94% 0.01 in 0 W/m2
05:44 32.8 °F 31.3 °F 30.15 in West 0.5 mph 1.2 mph 94% 0.01 in 0 W/m2
05:49 32.8 °F 31.3 °F 30.15 in West 0.2 mph 1.2 mph 94% 0.01 in 0 W/m2
05:54 32.8 °F 31.3 °F 30.15 in Calm   1.2 mph 94% 0.01 in 0 W/m2
05:59 32.8 °F 31.3 °F 30.15 in West 0.1 mph 1.2 mph 94% 0.01 in 0 W/m2
06:04 32.9 °F 31.4 °F 30.15 in West 0.6 mph 2.3 mph 94% 0.01 in 0 W/m2
06:09 32.9 °F 31.4 °F 30.14 in West 0.1 mph 1.2 mph 94% 0.02 in 0 W/m2
06:14 32.9 °F 31.4 °F 30.14 in West 0.1 mph 1.2 mph 94% 0.02 in 0 W/m2
06:19 32.9 °F 31.4 °F 30.14 in West 0.1 mph 1.2 mph 94% 0.02 in 0 W/m2
06:24 32.9 °F 31.4 °F 30.14 in West 0.2 mph 1.2 mph 94% 0.03 in 0 W/m2
06:29 32.9 °F 31.4 °F 30.14 in Calm   1 mph 94% 0.04 in 0 W/m2
06:34 32.9 °F 31.4 °F 30.13 in West 0.1 mph 1.2 mph 94% 0.04 in 0 W/m2
06:39 32.9 °F 31.4 °F 30.13 in Calm   1.2 mph 94% 0.04 in 0 W/m2
06:44 32.9 °F 31.5 °F 30.13 in West 0.3 mph 1.2 mph 94.2% 0.05 in 0 W/m2
06:49 33 °F 31.6 °F 30.13 in Calm   1.2 mph 94.7% 0.05 in 0 W/m2
06:54 33 °F 31.6 °F 30.12 in Calm   1.2 mph 94.7% 0.05 in 0 W/m2
06:59 33 °F 31.7 °F 30.12 in Calm     95% 0.05 in 0 W/m2
07:04 33.1 °F 31.8 °F 30.12 in West 0.4 mph 1.2 mph 95% 0.05 in 0 W/m2
07:09 33.1 °F 31.8 °F 30.12 in West 0.6 mph 1.2 mph 95% 0.05 in 0 W/m2
07:14 33.1 °F 31.8 °F 30.12 in West 0.3 mph 1.2 mph 95% 0.05 in 1 W/m2
07:19 33.2 °F 31.9 °F 30.12 in West 0.4 mph 1.2 mph 95% 0.05 in 1 W/m2
07:24 33.2 °F 31.9 °F 30.11 in West 0.2 mph 1.2 mph 95% 0.05 in 2 W/m2
07:29 33.3 °F 32 °F 30.11 in Calm   1.2 mph 95% 0.05 in 5 W/m2
07:34 33.3 °F 32 °F 30.10 in West 0.1 mph 1.2 mph 95% 0.05 in 7 W/m2
07:39 33.3 °F 32 °F 30.10 in Calm   1.2 mph 95% 0.06 in 9 W/m2
07:44 33.3 °F 32 °F 30.09 in Calm   1.2 mph 95% 0.06 in 9 W/m2
07:49 33.4 °F 32.1 °F 30.09 in West 0.3 mph 1.2 mph 95% 0.06 in 9 W/m2
07:54 33.4 °F 32.1 °F 30.09 in West 0.1 mph 1.2 mph 95% 0.06 in 11 W/m2
07:59 33.5 °F 32.2 °F 30.09 in West 0.4 mph 1.2 mph 95% 0.06 in 13 W/m2
08:04 33.8 °F 32.5 °F 30.08 in West 0.3 mph 1.2 mph 95% 0.06 in 15 W/m2
08:09 33.9 °F 32.6 °F 30.08 in West 0.4 mph 1.2 mph 95% 0.07 in 16 W/m2
08:14 34 °F 32.7 °F 30.08 in West 1.2 mph 2.3 mph 95% 0.07 in 17 W/m2
08:19 34.1 °F 32.8 °F 30.07 in West 1.1 mph 2.3 mph 95% 0.07 in 11 W/m2
08:24 34.2 °F 32.9 °F 30.07 in West 0.5 mph 2.3 mph 95% 0.08 in 17 W/m2
08:29 34.2 °F 32.9 °F 30.07 in West 0.6 mph 2.3 mph 95% 0.10 in 11 W/m2
08:34 34.3 °F 33 °F 30.06 in West 0.5 mph 2.3 mph 95% 0.10 in 13 W/m2
08:39 34.4 °F 33.1 °F 30.07 in West 0.6 mph 2.3 mph 95% 0.11 in 13 W/m2
08:44 34.4 °F 33.1 °F 30.07 in West 1 mph 2.3 mph 95% 0.12 in 15 W/m2
08:49 34.5 °F 33.2 °F 30.07 in West 1 mph 2.3 mph 95% 0.14 in 17 W/m2
08:54 34.6 °F 33.3 °F 30.07 in West 0.6 mph 1.2 mph 95% 0.15 in 20 W/m2
08:59 34.8 °F 33.5 °F 30.07 in West 0.9 mph 2.3 mph 95% 0.16 in 21 W/m2
09:04 35 °F 33.7 °F 30.07 in West 0.6 mph 2.3 mph 95% 0.18 in 26 W/m2
09:09 35.2 °F 33.9 °F 30.07 in West 0.9 mph 2.3 mph 95% 0.19 in 25 W/m2
09:14 35.4 °F 34.1 °F 30.06 in West 1.2 mph 2.3 mph 95% 0.20 in 30 W/m2
09:19 35.8 °F 34.6 °F 30.06 in West 0.6 mph 2.3 mph 95.3% 0.20 in 30 W/m2
09:24 35.9 °F 34.6 °F 30.06 in West 0.4 mph 1.2 mph 95% 0.19 in 36 W/m2
09:29 35.8 °F 34.5 °F 30.06 in West 0.8 mph 2.3 mph 95% 0.19 in 37 W/m2
09:34 35.6 °F 34.3 °F 30.06 in NNW 1.3 mph 2.3 mph 95% 0.18 in 39 W/m2
09:39 35.7 °F 34.4 °F 30.05 in NW 1.3 mph 3.5 mph 95% 0.17 in 34 W/m2
09:44 35.9 °F 34.6 °F 30.05 in NW 1 mph 2.3 mph 95% 0.17 in 27 W/m2
09:49 36 °F 34.7 °F 30.05 in NW 0.4 mph 2 mph 95% 0.16 in 24 W/m2
09:54 36 °F 34.7 °F 30.05 in NW 0.5 mph 2.3 mph 95% 0.16 in 17 W/m2
09:59 36.1 °F 34.8 °F 30.04 in NW 0.5 mph 2.3 mph 95% 0.15 in 21 W/m2
10:04 36.2 °F 34.9 °F 30.04 in North 0.7 mph 3.5 mph 95% 0.14 in 20 W/m2
10:09 36.2 °F 34.9 °F 30.04 in North 0.7 mph 3.5 mph 95% 0.14 in 30 W/m2
10:14 36.4 °F 35.3 °F 30.03 in NNE 0.8 mph 3.5 mph 95.5% 0.14 in 53 W/m2
10:19 36.5 °F 35.5 °F 30.02 in NNE 0.7 mph 2.3 mph 96% 0.14 in 55 W/m2
10:24 36.5 °F 35.5 °F 30.01 in NNE 0.4 mph 1.2 mph 96% 0.15 in 59 W/m2
10:29 36.5 °F 35.5 °F 30.00 in NNE 0.6 mph 2.3 mph 96% 0.15 in 53 W/m2
10:34 36.6 °F 35.6 °F 29.99 in NNE 1.1 mph 2.3 mph 96% 0.15 in 53 W/m2
10:39 37 °F 36 °F 29.99 in NNE 1 mph 3.5 mph 96% 0.14 in 42 W/m2
10:44 37.4 °F 36.4 °F 29.98 in NNE 1.3 mph 3.5 mph 96% 0.14 in 46 W/m2
10:49 37.5 °F 36.5 °F 29.97 in NNE 0.3 mph 2.3 mph 96% 0.14 in 49 W/m2
10:54 37.5 °F 36.5 °F 29.97 in NNE 0.3 mph 2.3 mph 96% 0.14 in 62 W/m2
10:59 37.5 °F 36.5 °F 29.96 in NNW 1 mph 3.5 mph 96% 0.14 in 49 W/m2
11:04 37.6 °F 36.6 °F 29.96 in NW 1.7 mph 4 mph 96% 0.14 in 40 W/m2
11:09 37.9 °F 36.9 °F 29.96 in NW 1.4 mph 4 mph 96% 0.12 in 60 W/m2
11:14 37.9 °F 36.9 °F 29.95 in North 1.2 mph 3.5 mph 96% 0.12 in 73 W/m2
11:19 37.8 °F 36.8 °F 29.95 in North 1.2 mph 3.5 mph 96% 0.13 in 79 W/m2
11:24 37.8 °F 36.8 °F 29.94 in NNW 0.8 mph 2.3 mph 96% 0.14 in 67 W/m2
11:29 37.9 °F 36.9 °F 29.94 in NW 0.9 mph 2.3 mph 96% 0.14 in 73 W/m2
11:34 37.9 °F 36.9 °F 29.94 in NW 0.6 mph 2 mph 96% 0.15 in 63 W/m2
11:39 38 °F 37 °F 29.93 in NW 0.8 mph 2.3 mph 96% 0.15 in 61 W/m2
11:44 38 °F 37 °F 29.93 in NW 1.1 mph 2.3 mph 96% 0.16 in 60 W/m2
11:49 37.9 °F 36.9 °F 29.93 in NW 1.3 mph 2.3 mph 96% 0.16 in 46 W/m2
11:54 38 °F 37 °F 29.93 in NW 1 mph 3.5 mph 96% 0.16 in 50 W/m2
11:59 38 °F 37 °F 29.92 in NNW 1 mph 2.3 mph 96% 0.16 in 53 W/m2
12:04 37.9 °F 36.9 °F 29.92 in NNW 1 mph 2.3 mph 96% 0.16 in 53 W/m2
12:09 38 °F 37 °F 29.91 in NNE 0.8 mph 3.5 mph 96% 0.16 in 60 W/m2
12:14 38.1 °F 37.1 °F 29.91 in NE 0.7 mph 2.3 mph 96% 0.15 in 64 W/m2
12:19 38.3 °F 37.3 °F 29.91 in NE 1.2 mph 6 mph 96% 0.14 in 55 W/m2
12:24 38.9 °F 37.9 °F 29.90 in South 2.7 mph 7 mph 96% 0.13 in 62 W/m2
12:29 40.6 °F 39.5 °F 29.89 in South 5.7 mph 16 mph 96% 0.12 in 62 W/m2
12:34 44.2 °F 43.3 °F 29.89 in South 8.1 mph 18.4 mph 96.8% 0.12 in 62 W/m2
12:39 46.8 °F 46 °F 29.89 in South 8.4 mph 14 mph 97% 0.11 in 56 W/m2
12:44 48.4 °F 47.6 °F 29.88 in South 7.9 mph 16.1 mph 97% 0.10 in 60 W/m2
12:49 49.4 °F 48.6 °F 29.88 in South 5.9 mph 11.5 mph 97% 0.09 in 66 W/m2
12:54 50 °F 49.2 °F 29.88 in South 6.4 mph 12 mph 97% 0.09 in 66 W/m2
12:59 50.3 °F 49.5 °F 29.87 in SSE 6.2 mph 10.4 mph 97% 0.08 in 68 W/m2
13:04 50.5 °F 49.7 °F 29.87 in SSE 5.5 mph 10.4 mph 97% 0.08 in 77 W/m2
13:09 50.6 °F 49.8 °F 29.86 in South 6.4 mph 12 mph 97% 0.07 in 89 W/m2
13:14 50.8 °F 50 °F 29.86 in South 6.5 mph 11.5 mph 97% 0.07 in 74 W/m2
13:19 51 °F 50.2 °F 29.86 in SSE 6.6 mph 11.5 mph 97% 0.07 in 81 W/m2
13:24 51 °F 50.2 °F 29.85 in South 5.8 mph 10.4 mph 97% 0.07 in 74 W/m2
13:29 51 °F 50.2 °F 29.85 in South 5.6 mph 11.5 mph 97% 0.06 in 74 W/m2
13:34 51.1 °F 50.1 °F 29.85 in South 5.2 mph 9.2 mph 96.5% 0.05 in 58 W/m2
13:39 51.1 °F 50 °F 29.85 in South 4.5 mph 9.2 mph 96% 0.04 in 64 W/m2
13:44 51.1 °F 50 °F 29.84 in SSE 4.6 mph 10.4 mph 96% 0.04 in 79 W/m2
13:49 51.2 °F 50.1 °F 29.84 in South 5.1 mph 10.4 mph 96% 0.04 in 68 W/m2
13:54 51.3 °F 50.4 °F 29.84 in South 5.1 mph 9.2 mph 96.9% 0.03 in 71 W/m2
13:59 51.2 °F 50.3 °F 29.84 in South 4.1 mph 6 mph 96.7% 0.03 in 57 W/m2
14:04 51.2 °F 50.1 °F 29.84 in South 4.8 mph 10.4 mph 96% 0.02 in 48 W/m2
14:09 51.1 °F 50 °F 29.84 in SSW 3.6 mph 8 mph 96% 0.02 in 45 W/m2
14:14 51.1 °F 50 °F 29.84 in South 4.1 mph 8.1 mph 96% 0.02 in 47 W/m2
14:19 51.1 °F 50 °F 29.83 in South 3.6 mph 9.2 mph 96% 0.01 in 46 W/m2
14:24 51 °F 49.9 °F 29.83 in SSW 3.7 mph 8.1 mph 96% 0.01 in 40 W/m2
14:29 51 °F 49.9 °F 29.83 in South 3.8 mph 9.2 mph 96% 0.01 in 37 W/m2
14:34 51 °F 49.9 °F 29.83 in SSW 3.7 mph 10.4 mph 96% 0.01 in 33 W/m2
14:39 51 °F 49.9 °F 29.84 in SSW 5 mph 12 mph 96% 0.01 in 30 W/m2
14:44 51 °F 49.9 °F 29.83 in SSW 4.1 mph 10.4 mph 96% 0.02 in 26 W/m2
14:49 51 °F 50 °F 29.83 in SSW 5.6 mph 11.5 mph 96.3% 0.01 in 28 W/m2
14:54 51 °F 50.1 °F 29.84 in SSW 5.6 mph 11.5 mph 96.7% 0.01 in 30 W/m2
14:59 51.1 °F 50.3 °F 29.84 in SSW 5.5 mph 11.5 mph 97% 0.01 in 28 W/m2
15:04 51 °F 50.2 °F 29.83 in South 4.7 mph 11 mph 97% 0.01 in 21 W/m2
15:09 50.9 °F 50.1 °F 29.84 in SSW 5.6 mph 11.5 mph 97% 0.01 in 19 W/m2
15:14 50.8 °F 50 °F 29.84 in South 4.6 mph 9.2 mph 97% 0.01 in 17 W/m2
15:19 50.8 °F 50 °F 29.83 in South 4.6 mph 9.2 mph 97% 0.01 in 15 W/m2
15:24 50.7 °F 49.9 °F 29.83 in South 4.1 mph 7 mph 97% 0.01 in 12 W/m2
15:29 50.6 °F 49.8 °F 29.83 in South 3.2 mph 9.2 mph 97% 0.01 in 11 W/m2
15:34 50.5 °F 49.7 °F 29.82 in South 3.4 mph 7 mph 97% 0.01 in 12 W/m2
15:39 50.5 °F 49.7 °F 29.82 in South 2.6 mph 5 mph 97% 0.01 in 11 W/m2
15:44 50.4 °F 49.6 °F 29.81 in SSE 2.2 mph 4 mph 97% 0.00 in 10 W/m2
15:49 50.3 °F 49.5 °F 29.81 in SSE 1.7 mph 3.5 mph 97% 0.00 in 8 W/m2
15:54 50.3 °F 49.5 °F 29.81 in SSE 1.8 mph 4 mph 97% 0.00 in 6 W/m2
15:59 50.3 °F 49.5 °F 29.81 in SSE 2.3 mph 4 mph 97% 0.00 in 4 W/m2
16:04 50.3 °F 49.5 °F 29.81 in SSE 2.7 mph 6 mph 97% 0.00 in 3 W/m2
16:09 50.3 °F 49.5 °F 29.81 in SSE 2.8 mph 5 mph 97% 0.00 in 2 W/m2
16:14 50.3 °F 49.5 °F 29.81 in SSE 2.4 mph 4 mph 97% 0.00 in 2 W/m2
16:19 50.3 °F 49.5 °F 29.80 in SSE 2.4 mph 4 mph 97% 0.00 in 1 W/m2
16:24 50.4 °F 49.6 °F 29.80 in SSE 2.2 mph 4 mph 97% 0.00 in 0 W/m2
16:29 50.3 °F 49.5 °F 29.80 in SSE 2.5 mph 4 mph 97% 0.01 in 0 W/m2
16:34 50.3 °F 49.5 °F 29.80 in SSE 2.6 mph 5 mph 97% 0.01 in 0 W/m2
16:39 50.2 °F 49.4 °F 29.80 in SSE 3.3 mph 6 mph 97% 0.01 in 0 W/m2
16:44 50.2 °F 49.4 °F 29.79 in SSE 2.9 mph 6 mph 97% 0.01 in 0 W/m2
16:49 50.2 °F 49.3 °F 29.79 in SSE 3.3 mph 8 mph 97% 0.01 in 0 W/m2
16:54 50.2 °F 49.4 °F 29.78 in SSE 3.2 mph 8.1 mph 97% 0.02 in 0 W/m2
16:59 50.2 °F 49.4 °F 29.78 in SSE 2.9 mph 5 mph 97% 0.02 in 0 W/m2
17:04 50.3 °F 49.5 °F 29.77 in SSE 2.7 mph 6 mph 97% 0.02 in 0 W/m2
17:09 50.3 °F 49.5 °F 29.77 in SSE 2.7 mph 6 mph 97% 0.03 in 0 W/m2
17:14 50.3 °F 49.5 °F 29.76 in SSE 3.3 mph 6 mph 97% 0.03 in 0 W/m2
17:19 50.4 °F 49.6 °F 29.76 in SSE 4 mph 9.2 mph 97% 0.03 in 0 W/m2
17:24 50.3 °F 49.5 °F 29.76 in SSE 4.1 mph 7 mph 97% 0.04 in 0 W/m2
17:29 50.3 °F 49.5 °F 29.76 in SSE 3.4 mph 7 mph 97% 0.04 in 0 W/m2
17:34 50.3 °F 49.5 °F 29.76 in SSE 2.9 mph 6.9 mph 97% 0.03 in 0 W/m2
17:39 50.3 °F 49.5 °F 29.76 in South 3.2 mph 6 mph 97% 0.04 in 0 W/m2
17:44 50.2 °F 49.4 °F 29.75 in SSE 2.7 mph 4.6 mph 97% 0.05 in 0 W/m2
17:49 50.2 °F 49.4 °F 29.76 in SSE 4.2 mph 10.4 mph 97% 0.05 in 0 W/m2
17:54 50.1 °F 49.3 °F 29.75 in South 3.1 mph 6 mph 97% 0.05 in 0 W/m2
17:59 50.1 °F 49.3 °F 29.75 in SSE 3.8 mph 8.1 mph 97% 0.05 in 0 W/m2
18:04 50 °F 49.2 °F 29.75 in SSE 4.3 mph 9.2 mph 97% 0.05 in 0 W/m2
18:09 49.9 °F 49.1 °F 29.76 in South 3.7 mph 8 mph 97% 0.04 in 0 W/m2
18:14 49.8 °F 49 °F 29.76 in South 4.6 mph 8.1 mph 97% 0.05 in 0 W/m2
18:19 49.8 °F 49 °F 29.75 in SSW 5 mph 8.1 mph 97% 0.05 in 0 W/m2
18:24 49.8 °F 49 °F 29.75 in South 4.1 mph 9.2 mph 97% 0.05 in 0 W/m2
18:29 49.8 °F 49 °F 29.75 in South 3.9 mph 9.2 mph 97% 0.05 in 0 W/m2
18:34 49.7 °F 48.9 °F 29.75 in South 3.8 mph 8.1 mph 97% 0.06 in 0 W/m2
18:39 49.7 °F 48.9 °F 29.74 in SSE 3.8 mph 6 mph 97% 0.06 in 0 W/m2
18:44 49.7 °F 48.9 °F 29.73 in SSE 3.1 mph 6 mph 97% 0.06 in 0 W/m2
18:49 49.7 °F 48.9 °F 29.73 in SSE 2.9 mph 6 mph 97% 0.06 in 0 W/m2
18:54 49.7 °F 48.9 °F 29.73 in SSE 3.1 mph 7 mph 97% 0.06 in 0 W/m2
18:59 49.7 °F 48.9 °F 29.73 in SSE 2.4 mph 5 mph 97% 0.06 in 0 W/m2
19:04 49.7 °F 48.9 °F 29.73 in South 2.8 mph 6 mph 97% 0.06 in 0 W/m2
19:09 49.7 °F 48.9 °F 29.73 in South 1.8 mph 4 mph 97% 0.07 in 0 W/m2
19:14 49.7 °F 48.9 °F 29.72 in SSE 3.1 mph 6 mph 97% 0.07 in 0 W/m2
19:19 49.8 °F 49 °F 29.72 in SSE 3 mph 7 mph 97% 0.06 in 0 W/m2
19:24 49.8 °F 49 °F 29.71 in SSE 2.9 mph 5 mph 97% 0.07 in 0 W/m2
19:29 49.9 °F 49.1 °F 29.71 in SSE 4.2 mph 11.5 mph 97% 0.06 in 0 W/m2
19:34 49.9 °F 49.1 °F 29.71 in South 2.9 mph 5 mph 97% 0.06 in 0 W/m2
19:39 49.9 °F 49.1 °F 29.71 in South 2.7 mph 7 mph 97% 0.06 in 0 W/m2
19:44 50 °F 49.2 °F 29.70 in SSE 2.3 mph 4 mph 97% 0.05 in 0 W/m2
19:49 50 °F 49.2 °F 29.70 in South 2 mph 6 mph 97% 0.05 in 0 W/m2
19:54 50.1 °F 49.3 °F 29.69 in SSE 2.3 mph 6 mph 97% 0.05 in 0 W/m2
19:59 50.2 °F 49.4 °F 29.69 in South 2.1 mph 5 mph 97% 0.04 in 0 W/m2
20:04 50.2 °F 49.4 °F 29.69 in South 2 mph 6 mph 97% 0.05 in 0 W/m2
20:09 50.2 °F 49.4 °F 29.69 in SSW 2.5 mph 5 mph 97% 0.05 in 0 W/m2
20:14 50.3 °F 49.5 °F 29.68 in South 2.4 mph 5 mph 97% 0.06 in 0 W/m2
20:19 50.3 °F 49.5 °F 29.68 in SSE 4.8 mph 10 mph 97% 0.06 in 0 W/m2
20:24 50.5 °F 49.7 °F 29.67 in South 5.4 mph 11.5 mph 97% 0.06 in 0 W/m2
20:29 50.9 °F 50.1 °F 29.67 in SSW 6.5 mph 15 mph 97% 0.05 in 0 W/m2
20:34 51.2 °F 50.4 °F 29.66 in South 7 mph 14 mph 97% 0.05 in 0 W/m2
20:39 51.4 °F 50.6 °F 29.66 in South 5.7 mph 13 mph 97% 0.05 in 0 W/m2
20:44 51.7 °F 50.9 °F 29.66 in South 7 mph 17.3 mph 97% 0.05 in 0 W/m2
20:49 51.9 °F 51.1 °F 29.66 in South 7.4 mph 16.1 mph 97% 0.05 in 0 W/m2
20:54 52.1 °F 51.3 °F 29.66 in SSW 7.6 mph 15 mph 97% 0.04 in 0 W/m2
20:59 52.2 °F 51.4 °F 29.66 in SSW 6.9 mph 16.1 mph 97% 0.06 in 0 W/m2
21:04 52.3 °F 51.5 °F 29.66 in SSW 7.2 mph 14 mph 97% 0.05 in 0 W/m2
21:09 52.4 °F 51.6 °F 29.65 in South 6.6 mph 13 mph 97% 0.05 in 0 W/m2
21:14 52.6 °F 51.8 °F 29.65 in SSW 7.5 mph 15 mph 97% 0.05 in 0 W/m2
21:19 52.7 °F 51.9 °F 29.65 in SSW 7.3 mph 15 mph 97% 0.04 in 0 W/m2
21:24 52.8 °F 52 °F 29.65 in SSW 6.2 mph 12.7 mph 97% 0.04 in 0 W/m2
21:29 52.9 °F 52.1 °F 29.65 in SSW 7.2 mph 15 mph 97% 0.04 in 0 W/m2
21:34 53 °F 52.2 °F 29.65 in South 8.6 mph 15 mph 97% 0.04 in 0 W/m2
21:39 53.1 °F 52.3 °F 29.64 in South 7.5 mph 14 mph 97% 0.04 in 0 W/m2
21:44 53.2 °F 52.4 °F 29.64 in South 7.2 mph 14 mph 97% 0.03 in 0 W/m2
21:49 53.2 °F 52.4 °F 29.64 in SSW 7.1 mph 16.1 mph 97% 0.03 in 0 W/m2
21:54 53.2 °F 52.4 °F 29.63 in South 6.3 mph 12 mph 97% 0.03 in 0 W/m2
21:59 53.2 °F 52.4 °F 29.63 in SSW 6.1 mph 11.5 mph 97% 0.03 in 0 W/m2
22:04 53.2 °F 52.4 °F 29.63 in SSW 6.5 mph 13 mph 97% 0.01 in 0 W/m2
22:09 53.2 °F 52.4 °F 29.63 in SSW 5.8 mph 12 mph 97% 0.01 in 0 W/m2
22:14 53.2 °F 52.4 °F 29.63 in SSW 5.7 mph 12 mph 97% 0.00 in 0 W/m2
22:19 53.2 °F 52.4 °F 29.63 in SSW 7.2 mph 12 mph 97% 0.00 in 0 W/m2
22:24 53.2 °F 52.4 °F 29.63 in SSW 6.5 mph 15 mph 97% 0.01 in 0 W/m2
22:29 53.2 °F 52.4 °F 29.63 in SSW 6.2 mph 12 mph 97% 0.01 in 0 W/m2
22:34 53.2 °F 52.4 °F 29.63 in SSW 6.9 mph 16.1 mph 97% 0.01 in 0 W/m2
22:39 53.2 °F 52.4 °F 29.63 in SSW 6 mph 13 mph 97% 0.01 in 0 W/m2
22:44 53.2 °F 52.4 °F 29.63 in SSW 6.5 mph 13 mph 97% 0.01 in 0 W/m2
22:49 53.2 °F 52.4 °F 29.63 in SW 6.7 mph 13 mph 97% 0.01 in 0 W/m2
22:54 53.2 °F 52.4 °F 29.63 in SW 5.6 mph 11.5 mph 97% 0.01 in 0 W/m2
22:59 53.2 °F 52.4 °F 29.63 in SSW 4.3 mph 9.2 mph 97% 0.01 in 0 W/m2
23:04 53.1 °F 52.3 °F 29.62 in SSW 3.6 mph 7 mph 97% 0.01 in 0 W/m2
23:09 53 °F 52.2 °F 29.62 in SSW 5.9 mph 13 mph 97% 0.01 in 0 W/m2
23:14 53 °F 52.2 °F 29.62 in SSW 5 mph 11.5 mph 97% 0.01 in 0 W/m2
Miami Avenue - Newington, Connecticut, USA
Compliments of Weather Underground - 4 mb